sensor_id;sensor_type;location;lat;lon;timestamp;temperature;humidity
15143;DHT22;7672;50.834;6.286;2023-05-07T00:00:42;16.40;99.90
15143;DHT22;7672;50.834;6.286;2023-05-07T00:03:09;16.40;99.90
15143;DHT22;7672;50.834;6.286;2023-05-07T00:05:38;16.30;99.90
15143;DHT22;7672;50.834;6.286;2023-05-07T00:08:06;16.30;99.90
15143;DHT22;7672;50.834;6.286;2023-05-07T00:10:34;16.30;99.90
15143;DHT22;7672;50.834;6.286;2023-05-07T00:13:01;16.30;99.90
15143;DHT22;7672;50.834;6.286;2023-05-07T00:15:29;16.20;99.90
15143;DHT22;7672;50.834;6.286;2023-05-07T00:17:56;16.20;99.90
15143;DHT22;7672;50.834;6.286;2023-05-07T00:20:27;16.20;99.90
15143;DHT22;7672;50.834;6.286;2023-05-07T00:22:57;16.10;99.90
15143;DHT22;7672;50.834;6.286;2023-05-07T00:25:25;16.10;99.90
15143;DHT22;7672;50.834;6.286;2023-05-07T00:27:56;16.10;99.90
15143;DHT22;7672;50.834;6.286;2023-05-07T00:30:26;16.10;99.90
15143;DHT22;7672;50.834;6.286;2023-05-07T00:32:54;16.10;99.90
15143;DHT22;7672;50.834;6.286;2023-05-07T00:35:22;16.10;99.90
15143;DHT22;7672;50.834;6.286;2023-05-07T00:37:50;16.20;99.90
15143;DHT22;7672;50.834;6.286;2023-05-07T00:40:18;16.20;99.90
15143;DHT22;7672;50.834;6.286;2023-05-07T00:42:46;16.20;99.90
15143;DHT22;7672;50.834;6.286;2023-05-07T00:45:15;16.20;99.90
15143;DHT22;7672;50.834;6.286;2023-05-07T00:47:44;16.20;99.90
15143;DHT22;7672;50.834;6.286;2023-05-07T00:50:12;16.30;99.90
15143;DHT22;7672;50.834;6.286;2023-05-07T00:52:40;16.30;99.90
15143;DHT22;7672;50.834;6.286;2023-05-07T00:55:09;16.30;99.90
15143;DHT22;7672;50.834;6.286;2023-05-07T00:57:37;16.30;99.90
15143;DHT22;7672;50.834;6.286;2023-05-07T01:00:08;16.30;99.90
15143;DHT22;7672;50.834;6.286;2023-05-07T01:02:39;16.30;99.90
15143;DHT22;7672;50.834;6.286;2023-05-07T01:05:12;16.30;99.90
15143;DHT22;7672;50.834;6.286;2023-05-07T01:07:43;16.40;99.90
15143;DHT22;7672;50.834;6.286;2023-05-07T01:10:11;16.40;99.90
15143;DHT22;7672;50.834;6.286;2023-05-07T01:12:40;16.40;99.90
15143;DHT22;7672;50.834;6.286;2023-05-07T01:15:09;16.40;99.90
15143;DHT22;7672;50.834;6.286;2023-05-07T01:17:39;16.40;99.90
15143;DHT22;7672;50.834;6.286;2023-05-07T01:20:15;16.40;99.90
15143;DHT22;7672;50.834;6.286;2023-05-07T01:22:45;16.40;99.90
15143;DHT22;7672;50.834;6.286;2023-05-07T01:25:13;16.40;99.90
15143;DHT22;7672;50.834;6.286;2023-05-07T01:27:47;16.80;99.90
15143;DHT22;7672;50.834;6.286;2023-05-07T01:30:14;16.70;99.90
15143;DHT22;7672;50.834;6.286;2023-05-07T01:32:52;16.40;99.90
15143;DHT22;7672;50.834;6.286;2023-05-07T01:35:39;16.40;99.90
15143;DHT22;7672;50.834;6.286;2023-05-07T01:38:08;16.40;99.90
15143;DHT22;7672;50.834;6.286;2023-05-07T01:40:35;16.40;99.90
15143;DHT22;7672;50.834;6.286;2023-05-07T01:43:03;16.40;99.90
15143;DHT22;7672;50.834;6.286;2023-05-07T01:45:32;16.40;99.90
15143;DHT22;7672;50.834;6.286;2023-05-07T01:48:06;16.40;99.90
15143;DHT22;7672;50.834;6.286;2023-05-07T01:50:36;16.30;99.90
15143;DHT22;7672;50.834;6.286;2023-05-07T01:53:04;16.30;99.90
15143;DHT22;7672;50.834;6.286;2023-05-07T01:55:32;16.30;99.90
15143;DHT22;7672;50.834;6.286;2023-05-07T01:57:59;16.30;99.90
15143;DHT22;7672;50.834;6.286;2023-05-07T02:00:28;16.30;99.90
15143;DHT22;7672;50.834;6.286;2023-05-07T02:02:56;16.20;99.90
15143;DHT22;7672;50.834;6.286;2023-05-07T02:05:36;16.20;99.90
15143;DHT22;7672;50.834;6.286;2023-05-07T02:08:11;16.10;99.90
15143;DHT22;7672;50.834;6.286;2023-05-07T02:10:38;16.20;99.90
15143;DHT22;7672;50.834;6.286;2023-05-07T02:13:06;16.10;99.90
15143;DHT22;7672;50.834;6.286;2023-05-07T02:15:33;16.10;99.90
15143;DHT22;7672;50.834;6.286;2023-05-07T02:18:07;16.10;99.90
15143;DHT22;7672;50.834;6.286;2023-05-07T02:20:36;16.00;99.90
15143;DHT22;7672;50.834;6.286;2023-05-07T02:23:03;16.00;99.90
15143;DHT22;7672;50.834;6.286;2023-05-07T02:25:30;16.00;99.90
15143;DHT22;7672;50.834;6.286;2023-05-07T02:27:58;16.00;99.90
15143;DHT22;7672;50.834;6.286;2023-05-07T02:30:48;16.00;99.90
15143;DHT22;7672;50.834;6.286;2023-05-07T02:33:16;16.00;99.90
15143;DHT22;7672;50.834;6.286;2023-05-07T02:35:44;15.90;99.90
15143;DHT22;7672;50.834;6.286;2023-05-07T02:38:13;15.90;99.90
15143;DHT22;7672;50.834;6.286;2023-05-07T02:40:41;15.90;99.90
15143;DHT22;7672;50.834;6.286;2023-05-07T02:43:09;15.90;99.90
15143;DHT22;7672;50.834;6.286;2023-05-07T02:45:36;15.90;99.90
15143;DHT22;7672;50.834;6.286;2023-05-07T02:48:06;15.90;99.90
15143;DHT22;7672;50.834;6.286;2023-05-07T02:50:34;15.90;99.90
15143;DHT22;7672;50.834;6.286;2023-05-07T02:53:02;15.80;99.90
15143;DHT22;7672;50.834;6.286;2023-05-07T02:55:33;15.90;99.90
15143;DHT22;7672;50.834;6.286;2023-05-07T02:58:01;15.90;99.90
15143;DHT22;7672;50.834;6.286;2023-05-07T03:00:32;15.90;99.90
15143;DHT22;7672;50.834;6.286;2023-05-07T03:03:22;15.90;99.90
15143;DHT22;7672;50.834;6.286;2023-05-07T03:05:50;16.00;99.90
15143;DHT22;7672;50.834;6.286;2023-05-07T03:08:17;16.10;99.90
15143;DHT22;7672;50.834;6.286;2023-05-07T03:10:44;15.90;99.90
15143;DHT22;7672;50.834;6.286;2023-05-07T03:13:11;16.00;99.90
15143;DHT22;7672;50.834;6.286;2023-05-07T03:15:38;16.00;99.90
15143;DHT22;7672;50.834;6.286;2023-05-07T03:18:05;16.00;99.90
15143;DHT22;7672;50.834;6.286;2023-05-07T03:20:33;16.00;99.90
15143;DHT22;7672;50.834;6.286;2023-05-07T03:23:00;16.00;99.90
15143;DHT22;7672;50.834;6.286;2023-05-07T03:25:27;16.00;99.90
15143;DHT22;7672;50.834;6.286;2023-05-07T03:27:56;16.00;99.90
15143;DHT22;7672;50.834;6.286;2023-05-07T03:30:28;16.00;99.90
15143;DHT22;7672;50.834;6.286;2023-05-07T03:32:55;16.00;99.90
15143;DHT22;7672;50.834;6.286;2023-05-07T03:35:22;16.00;99.90
15143;DHT22;7672;50.834;6.286;2023-05-07T03:37:49;16.00;99.90
15143;DHT22;7672;50.834;6.286;2023-05-07T03:40:17;15.90;99.90
15143;DHT22;7672;50.834;6.286;2023-05-07T03:42:48;15.90;99.90
15143;DHT22;7672;50.834;6.286;2023-05-07T03:45:18;15.90;99.90
15143;DHT22;7672;50.834;6.286;2023-05-07T03:47:51;15.90;99.90
15143;DHT22;7672;50.834;6.286;2023-05-07T03:50:20;15.90;99.90
15143;DHT22;7672;50.834;6.286;2023-05-07T03:52:47;15.80;99.90
15143;DHT22;7672;50.834;6.286;2023-05-07T03:55:16;15.80;99.90
15143;DHT22;7672;50.834;6.286;2023-05-07T03:57:49;15.80;99.90
15143;DHT22;7672;50.834;6.286;2023-05-07T04:00:18;15.90;99.90
15143;DHT22;7672;50.834;6.286;2023-05-07T04:02:46;15.80;99.90
15143;DHT22;7672;50.834;6.286;2023-05-07T04:05:17;15.70;99.90
15143;DHT22;7672;50.834;6.286;2023-05-07T04:07:47;15.70;99.90
15143;DHT22;7672;50.834;6.286;2023-05-07T04:10:18;15.70;99.90
15143;DHT22;7672;50.834;6.286;2023-05-07T04:12:48;15.70;99.90
15143;DHT22;7672;50.834;6.286;2023-05-07T04:15:19;15.70;99.90
15143;DHT22;7672;50.834;6.286;2023-05-07T04:17:46;15.70;99.90
15143;DHT22;7672;50.834;6.286;2023-05-07T04:20:16;15.70;99.90
15143;DHT22;7672;50.834;6.286;2023-05-07T04:22:48;15.70;99.90
15143;DHT22;7672;50.834;6.286;2023-05-07T04:25:16;15.70;99.90
15143;DHT22;7672;50.834;6.286;2023-05-07T04:27:43;15.70;99.90
15143;DHT22;7672;50.834;6.286;2023-05-07T04:30:12;15.80;99.90
15143;DHT22;7672;50.834;6.286;2023-05-07T04:32:40;15.70;99.90
15143;DHT22;7672;50.834;6.286;2023-05-07T04:35:07;15.80;99.90
15143;DHT22;7672;50.834;6.286;2023-05-07T04:37:34;15.80;99.90
15143;DHT22;7672;50.834;6.286;2023-05-07T04:40:02;15.80;99.90
15143;DHT22;7672;50.834;6.286;2023-05-07T04:42:30;15.80;99.90
15143;DHT22;7672;50.834;6.286;2023-05-07T04:44:59;15.80;99.90
15143;DHT22;7672;50.834;6.286;2023-05-07T04:47:27;15.90;99.90
15143;DHT22;7672;50.834;6.286;2023-05-07T04:49:54;16.00;99.90
15143;DHT22;7672;50.834;6.286;2023-05-07T04:52:21;15.90;99.90
15143;DHT22;7672;50.834;6.286;2023-05-07T04:54:48;16.00;99.90
15143;DHT22;7672;50.834;6.286;2023-05-07T04:57:15;16.00;99.90
15143;DHT22;7672;50.834;6.286;2023-05-07T04:59:44;16.00;99.90
15143;DHT22;7672;50.834;6.286;2023-05-07T05:02:11;16.10;99.90
15143;DHT22;7672;50.834;6.286;2023-05-07T05:04:38;16.10;99.90
15143;DHT22;7672;50.834;6.286;2023-05-07T05:07:06;16.10;99.90
15143;DHT22;7672;50.834;6.286;2023-05-07T05:09:33;16.20;99.90
15143;DHT22;7672;50.834;6.286;2023-05-07T05:12:00;16.20;99.90
15143;DHT22;7672;50.834;6.286;2023-05-07T05:14:28;16.20;99.90
15143;DHT22;7672;50.834;6.286;2023-05-07T05:16:56;16.30;99.90
15143;DHT22;7672;50.834;6.286;2023-05-07T05:19:23;16.30;99.90
15143;DHT22;7672;50.834;6.286;2023-05-07T05:21:50;16.40;99.90
15143;DHT22;7672;50.834;6.286;2023-05-07T05:24:17;16.40;99.90
15143;DHT22;7672;50.834;6.286;2023-05-07T05:26:44;16.70;99.90
15143;DHT22;7672;50.834;6.286;2023-05-07T05:29:12;16.60;99.90
15143;DHT22;7672;50.834;6.286;2023-05-07T05:31:41;16.70;99.90
15143;DHT22;7672;50.834;6.286;2023-05-07T05:34:09;16.70;99.90
15143;DHT22;7672;50.834;6.286;2023-05-07T05:36:36;16.80;99.90
15143;DHT22;7672;50.834;6.286;2023-05-07T05:39:04;16.90;99.90
15143;DHT22;7672;50.834;6.286;2023-05-07T05:41:31;17.00;99.90
15143;DHT22;7672;50.834;6.286;2023-05-07T05:43:58;17.00;99.90
15143;DHT22;7672;50.834;6.286;2023-05-07T05:46:25;17.20;99.90
15143;DHT22;7672;50.834;6.286;2023-05-07T05:48:53;17.30;99.90
15143;DHT22;7672;50.834;6.286;2023-05-07T05:51:21;17.30;99.90
15143;DHT22;7672;50.834;6.286;2023-05-07T05:53:48;17.70;99.90
15143;DHT22;7672;50.834;6.286;2023-05-07T05:56:16;17.50;99.90
15143;DHT22;7672;50.834;6.286;2023-05-07T05:58:43;17.50;99.90
15143;DHT22;7672;50.834;6.286;2023-05-07T06:01:10;17.60;99.90
15143;DHT22;7672;50.834;6.286;2023-05-07T06:03:38;17.60;99.90
15143;DHT22;7672;50.834;6.286;2023-05-07T06:06:11;17.70;99.90
15143;DHT22;7672;50.834;6.286;2023-05-07T06:08:38;17.80;99.90
15143;DHT22;7672;50.834;6.286;2023-05-07T06:11:06;17.90;99.90
15143;DHT22;7672;50.834;6.286;2023-05-07T06:13:36;17.90;99.90
15143;DHT22;7672;50.834;6.286;2023-05-07T06:16:03;18.00;99.90
15143;DHT22;7672;50.834;6.286;2023-05-07T06:18:31;18.10;99.90
15143;DHT22;7672;50.834;6.286;2023-05-07T06:20:58;18.10;99.90
15143;DHT22;7672;50.834;6.286;2023-05-07T06:23:29;18.20;99.90
15143;DHT22;7672;50.834;6.286;2023-05-07T06:25:56;18.20;99.90
15143;DHT22;7672;50.834;6.286;2023-05-07T06:28:28;18.50;99.90
15143;DHT22;7672;50.834;6.286;2023-05-07T06:31:14;18.30;99.90
15143;DHT22;7672;50.834;6.286;2023-05-07T06:33:49;18.40;99.90
15143;DHT22;7672;50.834;6.286;2023-05-07T06:36:17;18.50;99.90
15143;DHT22;7672;50.834;6.286;2023-05-07T06:38:44;18.50;99.90
15143;DHT22;7672;50.834;6.286;2023-05-07T06:41:11;18.70;99.90
15143;DHT22;7672;50.834;6.286;2023-05-07T06:43:38;18.80;99.90
15143;DHT22;7672;50.834;6.286;2023-05-07T06:46:44;18.90;99.90
15143;DHT22;7672;50.834;6.286;2023-05-07T06:49:13;19.10;99.90
15143;DHT22;7672;50.834;6.286;2023-05-07T06:51:40;19.30;99.90
15143;DHT22;7672;50.834;6.286;2023-05-07T06:54:08;19.60;99.90
15143;DHT22;7672;50.834;6.286;2023-05-07T06:56:37;19.60;99.90
15143;DHT22;7672;50.834;6.286;2023-05-07T06:59:06;19.80;99.90
15143;DHT22;7672;50.834;6.286;2023-05-07T07:01:37;20.00;99.90
15143;DHT22;7672;50.834;6.286;2023-05-07T07:04:06;20.40;99.90
15143;DHT22;7672;50.834;6.286;2023-05-07T07:06:34;20.50;99.90
15143;DHT22;7672;50.834;6.286;2023-05-07T07:09:05;20.70;99.90
15143;DHT22;7672;50.834;6.286;2023-05-07T07:11:32;20.90;99.90
15143;DHT22;7672;50.834;6.286;2023-05-07T07:13:59;21.00;99.90
15143;DHT22;7672;50.834;6.286;2023-05-07T07:16:29;21.40;99.90
15143;DHT22;7672;50.834;6.286;2023-05-07T07:18:57;21.30;99.90
15143;DHT22;7672;50.834;6.286;2023-05-07T07:21:24;21.40;99.90
15143;DHT22;7672;50.834;6.286;2023-05-07T07:23:52;21.50;99.90
15143;DHT22;7672;50.834;6.286;2023-05-07T07:26:20;21.60;99.90
15143;DHT22;7672;50.834;6.286;2023-05-07T07:28:47;21.60;99.90
15143;DHT22;7672;50.834;6.286;2023-05-07T07:31:18;21.60;99.90
15143;DHT22;7672;50.834;6.286;2023-05-07T07:33:47;21.60;99.90
15143;DHT22;7672;50.834;6.286;2023-05-07T07:36:15;21.70;99.90
15143;DHT22;7672;50.834;6.286;2023-05-07T07:38:42;21.60;99.90
15143;DHT22;7672;50.834;6.286;2023-05-07T07:41:09;21.60;99.90
15143;DHT22;7672;50.834;6.286;2023-05-07T07:43:36;21.60;99.90
15143;DHT22;7672;50.834;6.286;2023-05-07T07:46:04;21.60;99.90
15143;DHT22;7672;50.834;6.286;2023-05-07T07:48:32;21.80;99.90
15143;DHT22;7672;50.834;6.286;2023-05-07T07:50:59;21.60;99.90
15143;DHT22;7672;50.834;6.286;2023-05-07T07:53:26;21.80;99.90
15143;DHT22;7672;50.834;6.286;2023-05-07T07:55:58;21.80;99.90
15143;DHT22;7672;50.834;6.286;2023-05-07T07:58:55;21.80;99.90
15143;DHT22;7672;50.834;6.286;2023-05-07T08:01:22;21.80;99.90
15143;DHT22;7672;50.834;6.286;2023-05-07T08:03:50;21.90;99.90
15143;DHT22;7672;50.834;6.286;2023-05-07T08:06:18;22.10;99.90
15143;DHT22;7672;50.834;6.286;2023-05-07T08:08:45;22.30;99.90
15143;DHT22;7672;50.834;6.286;2023-05-07T08:11:12;22.40;99.90
15143;DHT22;7672;50.834;6.286;2023-05-07T08:13:39;22.10;99.90
15143;DHT22;7672;50.834;6.286;2023-05-07T08:16:07;22.20;99.90
15143;DHT22;7672;50.834;6.286;2023-05-07T08:18:35;22.20;99.90
15143;DHT22;7672;50.834;6.286;2023-05-07T08:21:03;22.30;99.90
15143;DHT22;7672;50.834;6.286;2023-05-07T08:23:31;22.30;99.90
15143;DHT22;7672;50.834;6.286;2023-05-07T08:25:58;22.40;99.90
15143;DHT22;7672;50.834;6.286;2023-05-07T08:28:26;22.40;99.90
15143;DHT22;7672;50.834;6.286;2023-05-07T08:30:53;22.40;99.90
15143;DHT22;7672;50.834;6.286;2023-05-07T08:33:20;22.50;99.90
15143;DHT22;7672;50.834;6.286;2023-05-07T08:35:47;22.60;99.90
15143;DHT22;7672;50.834;6.286;2023-05-07T08:38:15;22.70;99.90
15143;DHT22;7672;50.834;6.286;2023-05-07T08:40:42;22.80;99.90
15143;DHT22;7672;50.834;6.286;2023-05-07T08:43:15;23.00;99.90
15143;DHT22;7672;50.834;6.286;2023-05-07T08:45:45;23.10;99.90
15143;DHT22;7672;50.834;6.286;2023-05-07T08:48:17;23.20;99.90
15143;DHT22;7672;50.834;6.286;2023-05-07T08:50:53;23.40;99.90
15143;DHT22;7672;50.834;6.286;2023-05-07T08:53:20;23.70;99.90
15143;DHT22;7672;50.834;6.286;2023-05-07T08:55:49;23.90;99.90
15143;DHT22;7672;50.834;6.286;2023-05-07T08:58:17;24.10;99.90
15143;DHT22;7672;50.834;6.286;2023-05-07T09:00:44;24.20;99.90
15143;DHT22;7672;50.834;6.286;2023-05-07T09:03:11;24.70;99.90
15143;DHT22;7672;50.834;6.286;2023-05-07T09:05:41;25.20;99.90
15143;DHT22;7672;50.834;6.286;2023-05-07T09:08:14;25.90;99.90
15143;DHT22;7672;50.834;6.286;2023-05-07T09:10:44;26.60;99.90
15143;DHT22;7672;50.834;6.286;2023-05-07T09:13:12;27.40;99.90
15143;DHT22;7672;50.834;6.286;2023-05-07T09:15:41;28.10;99.90
15143;DHT22;7672;50.834;6.286;2023-05-07T09:18:09;28.80;99.90
15143;DHT22;7672;50.834;6.286;2023-05-07T09:20:39;29.60;99.90
15143;DHT22;7672;50.834;6.286;2023-05-07T09:23:08;30.30;99.90
15143;DHT22;7672;50.834;6.286;2023-05-07T09:25:36;30.80;99.90
15143;DHT22;7672;50.834;6.286;2023-05-07T09:28:11;31.30;99.90
15143;DHT22;7672;50.834;6.286;2023-05-07T09:30:38;31.70;99.90
15143;DHT22;7672;50.834;6.286;2023-05-07T09:33:08;32.00;99.90
15143;DHT22;7672;50.834;6.286;2023-05-07T09:35:39;32.20;99.90
15143;DHT22;7672;50.834;6.286;2023-05-07T09:38:12;32.20;99.90
15143;DHT22;7672;50.834;6.286;2023-05-07T09:40:40;32.40;99.90
15143;DHT22;7672;50.834;6.286;2023-05-07T09:43:13;32.60;99.90
15143;DHT22;7672;50.834;6.286;2023-05-07T09:45:50;32.70;99.90
15143;DHT22;7672;50.834;6.286;2023-05-07T09:48:20;33.00;99.90
15143;DHT22;7672;50.834;6.286;2023-05-07T09:50:51;33.20;99.90
15143;DHT22;7672;50.834;6.286;2023-05-07T09:53:30;33.30;99.90
15143;DHT22;7672;50.834;6.286;2023-05-07T09:56:00;33.40;99.90
15143;DHT22;7672;50.834;6.286;2023-05-07T09:58:32;33.40;99.90
15143;DHT22;7672;50.834;6.286;2023-05-07T10:01:01;33.20;99.90
15143;DHT22;7672;50.834;6.286;2023-05-07T10:03:31;33.00;99.90
15143;DHT22;7672;50.834;6.286;2023-05-07T10:06:04;32.60;99.90
15143;DHT22;7672;50.834;6.286;2023-05-07T10:08:32;32.30;99.90
15143;DHT22;7672;50.834;6.286;2023-05-07T10:11:02;31.80;99.90
15143;DHT22;7672;50.834;6.286;2023-05-07T10:13:32;31.40;99.90
15143;DHT22;7672;50.834;6.286;2023-05-07T10:16:06;31.10;99.90
15143;DHT22;7672;50.834;6.286;2023-05-07T10:18:41;30.70;99.90
15143;DHT22;7672;50.834;6.286;2023-05-07T10:21:17;30.20;99.90
15143;DHT22;7672;50.834;6.286;2023-05-07T10:23:56;29.90;99.90
15143;DHT22;7672;50.834;6.286;2023-05-07T10:26:29;29.50;99.90
15143;DHT22;7672;50.834;6.286;2023-05-07T10:29:04;29.10;99.90
15143;DHT22;7672;50.834;6.286;2023-05-07T10:35:16;28.40;99.90
15143;DHT22;7672;50.834;6.286;2023-05-07T10:37:48;28.00;99.90
15143;DHT22;7672;50.834;6.286;2023-05-07T10:40:17;27.60;99.90
15143;DHT22;7672;50.834;6.286;2023-05-07T10:42:57;27.40;99.90
15143;DHT22;7672;50.834;6.286;2023-05-07T10:45:29;27.10;99.90
15143;DHT22;7672;50.834;6.286;2023-05-07T10:48:15;26.70;99.90
15143;DHT22;7672;50.834;6.286;2023-05-07T10:51:21;26.50;99.90
15143;DHT22;7672;50.834;6.286;2023-05-07T10:56:40;26.20;99.90
15143;DHT22;7672;50.834;6.286;2023-05-07T11:01:57;26.00;99.90
15143;DHT22;7672;50.834;6.286;2023-05-07T11:04:35;26.00;99.90
15143;DHT22;7672;50.834;6.286;2023-05-07T11:07:28;25.90;99.90
15143;DHT22;7672;50.834;6.286;2023-05-07T11:10:02;25.90;99.90
15143;DHT22;7672;50.834;6.286;2023-05-07T11:15:37;25.90;99.90
15143;DHT22;7672;50.834;6.286;2023-05-07T11:18:51;25.70;99.90
15143;DHT22;7672;50.834;6.286;2023-05-07T11:21:39;25.70;99.90
15143;DHT22;7672;50.834;6.286;2023-05-07T11:24:21;25.70;99.90
15143;DHT22;7672;50.834;6.286;2023-05-07T11:26:56;25.70;99.90
15143;DHT22;7672;50.834;6.286;2023-05-07T11:29:25;25.70;99.90
15143;DHT22;7672;50.834;6.286;2023-05-07T11:31:57;25.70;99.90
15143;DHT22;7672;50.834;6.286;2023-05-07T11:34:29;25.70;99.90
15143;DHT22;7672;50.834;6.286;2023-05-07T11:36:58;25.70;99.90
15143;DHT22;7672;50.834;6.286;2023-05-07T11:40:01;25.70;99.90
15143;DHT22;7672;50.834;6.286;2023-05-07T11:44:58;25.70;99.90
15143;DHT22;7672;50.834;6.286;2023-05-07T11:47:25;25.70;99.90
15143;DHT22;7672;50.834;6.286;2023-05-07T11:49:53;25.70;99.90
15143;DHT22;7672;50.834;6.286;2023-05-07T11:52:22;25.70;99.90
15143;DHT22;7672;50.834;6.286;2023-05-07T11:54:52;25.50;99.90
15143;DHT22;7672;50.834;6.286;2023-05-07T11:57:22;25.50;99.90
15143;DHT22;7672;50.834;6.286;2023-05-07T11:59:56;25.60;99.90
15143;DHT22;7672;50.834;6.286;2023-05-07T12:02:25;25.40;99.90
15143;DHT22;7672;50.834;6.286;2023-05-07T12:04:53;25.30;99.90
15143;DHT22;7672;50.834;6.286;2023-05-07T12:07:21;25.30;99.90
15143;DHT22;7672;50.834;6.286;2023-05-07T12:09:52;25.30;99.90
15143;DHT22;7672;50.834;6.286;2023-05-07T12:12:20;25.20;99.90
15143;DHT22;7672;50.834;6.286;2023-05-07T12:14:48;25.20;99.90
15143;DHT22;7672;50.834;6.286;2023-05-07T12:17:16;25.20;99.90
15143;DHT22;7672;50.834;6.286;2023-05-07T12:19:44;25.00;99.90
15143;DHT22;7672;50.834;6.286;2023-05-07T12:22:12;25.00;99.90
15143;DHT22;7672;50.834;6.286;2023-05-07T12:24:46;24.90;99.90
15143;DHT22;7672;50.834;6.286;2023-05-07T12:27:15;24.80;99.90
15143;DHT22;7672;50.834;6.286;2023-05-07T12:29:48;24.70;99.90
15143;DHT22;7672;50.834;6.286;2023-05-07T12:32:17;24.70;99.90
15143;DHT22;7672;50.834;6.286;2023-05-07T12:34:46;24.50;99.90
15143;DHT22;7672;50.834;6.286;2023-05-07T12:37:23;24.50;99.90
15143;DHT22;7672;50.834;6.286;2023-05-07T12:42:36;24.30;99.90
15143;DHT22;7672;50.834;6.286;2023-05-07T12:45:11;24.20;99.90
15143;DHT22;7672;50.834;6.286;2023-05-07T12:47:44;24.10;99.90
15143;DHT22;7672;50.834;6.286;2023-05-07T12:50:16;24.10;99.90
15143;DHT22;7672;50.834;6.286;2023-05-07T12:52:45;24.00;99.90
15143;DHT22;7672;50.834;6.286;2023-05-07T12:55:17;23.90;99.90
15143;DHT22;7672;50.834;6.286;2023-05-07T12:57:48;23.90;99.90
15143;DHT22;7672;50.834;6.286;2023-05-07T13:00:17;23.80;99.90
15143;DHT22;7672;50.834;6.286;2023-05-07T13:02:45;23.80;99.90
15143;DHT22;7672;50.834;6.286;2023-05-07T13:05:13;23.70;99.90
15143;DHT22;7672;50.834;6.286;2023-05-07T13:07:40;23.70;99.90
15143;DHT22;7672;50.834;6.286;2023-05-07T13:10:19;23.70;99.90
15143;DHT22;7672;50.834;6.286;2023-05-07T13:12:46;23.40;99.90
15143;DHT22;7672;50.834;6.286;2023-05-07T13:15:13;23.60;99.90
15143;DHT22;7672;50.834;6.286;2023-05-07T13:17:40;23.70;99.90
15143;DHT22;7672;50.834;6.286;2023-05-07T13:20:09;23.60;99.90
15143;DHT22;7672;50.834;6.286;2023-05-07T13:22:39;23.70;99.90
15143;DHT22;7672;50.834;6.286;2023-05-07T13:25:06;23.70;99.90
15143;DHT22;7672;50.834;6.286;2023-05-07T13:27:34;23.80;99.90
15143;DHT22;7672;50.834;6.286;2023-05-07T13:30:04;23.90;99.90
15143;DHT22;7672;50.834;6.286;2023-05-07T13:32:32;24.10;99.90
15143;DHT22;7672;50.834;6.286;2023-05-07T13:34:59;24.20;99.90
15143;DHT22;7672;50.834;6.286;2023-05-07T13:37:27;24.40;99.90
15143;DHT22;7672;50.834;6.286;2023-05-07T13:39:54;24.50;99.90
15143;DHT22;7672;50.834;6.286;2023-05-07T13:42:21;24.70;99.90
15143;DHT22;7672;50.834;6.286;2023-05-07T13:44:47;24.90;99.90
15143;DHT22;7672;50.834;6.286;2023-05-07T13:47:14;25.00;99.90
15143;DHT22;7672;50.834;6.286;2023-05-07T13:49:41;25.20;99.90
15143;DHT22;7672;50.834;6.286;2023-05-07T13:52:08;25.30;99.90
15143;DHT22;7672;50.834;6.286;2023-05-07T13:54:36;25.40;99.90
15143;DHT22;7672;50.834;6.286;2023-05-07T13:57:03;25.40;99.90
15143;DHT22;7672;50.834;6.286;2023-05-07T13:59:30;25.50;99.90
15143;DHT22;7672;50.834;6.286;2023-05-07T14:01:57;25.50;99.90
15143;DHT22;7672;50.834;6.286;2023-05-07T14:04:24;25.50;99.90
15143;DHT22;7672;50.834;6.286;2023-05-07T14:06:51;25.50;99.90
15143;DHT22;7672;50.834;6.286;2023-05-07T14:09:18;25.50;99.90
15143;DHT22;7672;50.834;6.286;2023-05-07T14:11:45;25.50;99.90
15143;DHT22;7672;50.834;6.286;2023-05-07T14:14:14;25.50;99.90
15143;DHT22;7672;50.834;6.286;2023-05-07T14:16:41;25.60;99.90
15143;DHT22;7672;50.834;6.286;2023-05-07T14:19:08;25.50;99.90
15143;DHT22;7672;50.834;6.286;2023-05-07T14:21:35;25.50;99.90
15143;DHT22;7672;50.834;6.286;2023-05-07T14:24:02;25.50;99.90
15143;DHT22;7672;50.834;6.286;2023-05-07T14:26:29;25.50;99.90
15143;DHT22;7672;50.834;6.286;2023-05-07T14:28:57;25.40;99.90
15143;DHT22;7672;50.834;6.286;2023-05-07T14:31:25;25.40;99.90
15143;DHT22;7672;50.834;6.286;2023-05-07T14:33:52;25.40;99.90
15143;DHT22;7672;50.834;6.286;2023-05-07T14:36:20;25.30;99.90
15143;DHT22;7672;50.834;6.286;2023-05-07T14:38:48;25.20;99.90
15143;DHT22;7672;50.834;6.286;2023-05-07T14:41:15;25.10;99.90
15143;DHT22;7672;50.834;6.286;2023-05-07T14:43:43;25.00;99.90
15143;DHT22;7672;50.834;6.286;2023-05-07T14:46:17;24.90;99.90
15143;DHT22;7672;50.834;6.286;2023-05-07T14:48:45;24.80;99.90
15143;DHT22;7672;50.834;6.286;2023-05-07T14:51:13;24.70;99.90
15143;DHT22;7672;50.834;6.286;2023-05-07T14:53:41;24.70;99.90
15143;DHT22;7672;50.834;6.286;2023-05-07T14:56:09;24.70;99.90
15143;DHT22;7672;50.834;6.286;2023-05-07T14:58:36;24.70;99.90
15143;DHT22;7672;50.834;6.286;2023-05-07T15:01:03;24.70;99.90
15143;DHT22;7672;50.834;6.286;2023-05-07T15:03:31;24.70;99.90
15143;DHT22;7672;50.834;6.286;2023-05-07T15:05:58;24.60;99.90
15143;DHT22;7672;50.834;6.286;2023-05-07T15:08:25;24.60;99.90
15143;DHT22;7672;50.834;6.286;2023-05-07T15:10:53;24.60;99.90
15143;DHT22;7672;50.834;6.286;2023-05-07T15:13:21;24.70;99.90
15143;DHT22;7672;50.834;6.286;2023-05-07T15:15:49;24.70;99.90
15143;DHT22;7672;50.834;6.286;2023-05-07T15:18:16;24.90;99.90
15143;DHT22;7672;50.834;6.286;2023-05-07T15:20:43;24.90;99.90
15143;DHT22;7672;50.834;6.286;2023-05-07T15:23:10;24.90;99.90
15143;DHT22;7672;50.834;6.286;2023-05-07T15:25:40;24.90;99.90
15143;DHT22;7672;50.834;6.286;2023-05-07T15:28:07;24.80;99.90
15143;DHT22;7672;50.834;6.286;2023-05-07T15:30:34;24.90;99.90
15143;DHT22;7672;50.834;6.286;2023-05-07T15:33:01;24.90;99.90
15143;DHT22;7672;50.834;6.286;2023-05-07T15:35:29;24.80;99.90
15143;DHT22;7672;50.834;6.286;2023-05-07T15:37:56;24.80;99.90
15143;DHT22;7672;50.834;6.286;2023-05-07T15:40:24;24.80;99.90
15143;DHT22;7672;50.834;6.286;2023-05-07T15:42:54;24.80;99.90
15143;DHT22;7672;50.834;6.286;2023-05-07T15:45:23;24.70;99.90
15143;DHT22;7672;50.834;6.286;2023-05-07T15:47:50;24.70;99.90
15143;DHT22;7672;50.834;6.286;2023-05-07T15:50:17;24.60;99.90
15143;DHT22;7672;50.834;6.286;2023-05-07T15:52:44;24.60;99.90
15143;DHT22;7672;50.834;6.286;2023-05-07T15:55:13;24.60;99.90
15143;DHT22;7672;50.834;6.286;2023-05-07T15:57:40;24.50;99.90
15143;DHT22;7672;50.834;6.286;2023-05-07T16:00:08;24.50;99.90
15143;DHT22;7672;50.834;6.286;2023-05-07T16:02:39;24.40;99.90
15143;DHT22;7672;50.834;6.286;2023-05-07T16:05:07;24.30;99.90
15143;DHT22;7672;50.834;6.286;2023-05-07T16:07:36;24.30;99.90
15143;DHT22;7672;50.834;6.286;2023-05-07T16:10:04;24.20;99.90
15143;DHT22;7672;50.834;6.286;2023-05-07T16:12:31;24.20;99.90
15143;DHT22;7672;50.834;6.286;2023-05-07T16:14:58;24.10;99.90
15143;DHT22;7672;50.834;6.286;2023-05-07T16:17:25;24.00;99.90